sensor_id;sensor_type;location;lat;lon;timestamp;P1;durP1;ratioP1;P2;durP2;ratioP2
7166;SDS011;3625;51.762;14.320;2023-02-01T00:00:09;9.03;;;3.27;;
7166;SDS011;3625;51.762;14.320;2023-02-01T00:02:39;7.43;;;3.73;;
7166;SDS011;3625;51.762;14.320;2023-02-01T00:05:09;8.13;;;3.13;;
7166;SDS011;3625;51.762;14.320;2023-02-01T00:07:46;9.03;;;2.63;;
7166;SDS011;3625;51.762;14.320;2023-02-01T00:10:19;8.93;;;3.43;;
7166;SDS011;3625;51.762;14.320;2023-02-01T00:12:53;10.17;;;4.13;;
7166;SDS011;3625;51.762;14.320;2023-02-01T00:15:32;10.33;;;3.30;;
7166;SDS011;3625;51.762;14.320;2023-02-01T00:18:02;11.17;;;3.57;;
7166;SDS011;3625;51.762;14.320;2023-02-01T00:20:33;5.57;;;3.20;;
7166;SDS011;3625;51.762;14.320;2023-02-01T00:23:04;11.70;;;3.57;;
7166;SDS011;3625;51.762;14.320;2023-02-01T00:25:38;8.30;;;3.10;;
7166;SDS011;3625;51.762;14.320;2023-02-01T00:28:10;5.73;;;3.10;;
7166;SDS011;3625;51.762;14.320;2023-02-01T00:30:40;7.77;;;2.93;;
7166;SDS011;3625;51.762;14.320;2023-02-01T00:33:17;4.03;;;2.60;;
7166;SDS011;3625;51.762;14.320;2023-02-01T00:35:46;11.53;;;3.43;;
7166;SDS011;3625;51.762;14.320;2023-02-01T00:38:17;11.33;;;3.20;;
7166;SDS011;3625;51.762;14.320;2023-02-01T00:40:56;13.10;;;3.90;;
7166;SDS011;3625;51.762;14.320;2023-02-01T00:43:40;7.57;;;3.00;;
7166;SDS011;3625;51.762;14.320;2023-02-01T00:46:10;11.73;;;3.50;;
7166;SDS011;3625;51.762;14.320;2023-02-01T00:48:41;5.43;;;3.20;;
7166;SDS011;3625;51.762;14.320;2023-02-01T00:51:13;14.90;;;4.13;;
7166;SDS011;3625;51.762;14.320;2023-02-01T00:53:54;8.67;;;4.60;;
7166;SDS011;3625;51.762;14.320;2023-02-01T00:56:29;9.47;;;3.40;;
7166;SDS011;3625;51.762;14.320;2023-02-01T00:59:10;7.90;;;3.77;;
7166;SDS011;3625;51.762;14.320;2023-02-01T01:01:42;12.50;;;3.33;;
7166;SDS011;3625;51.762;14.320;2023-02-01T01:04:11;8.67;;;3.53;;
7166;SDS011;3625;51.762;14.320;2023-02-01T01:06:41;9.53;;;3.50;;
7166;SDS011;3625;51.762;14.320;2023-02-01T01:09:31;11.10;;;3.97;;
7166;SDS011;3625;51.762;14.320;2023-02-01T01:12:03;16.00;;;4.50;;
7166;SDS011;3625;51.762;14.320;2023-02-01T01:14:33;9.90;;;3.93;;
7166;SDS011;3625;51.762;14.320;2023-02-01T01:17:05;11.60;;;3.30;;
7166;SDS011;3625;51.762;14.320;2023-02-01T01:19:33;9.73;;;3.60;;
7166;SDS011;3625;51.762;14.320;2023-02-01T01:22:05;8.50;;;3.27;;
7166;SDS011;3625;51.762;14.320;2023-02-01T01:24:34;8.00;;;3.47;;
7166;SDS011;3625;51.762;14.320;2023-02-01T01:27:05;8.67;;;4.00;;
7166;SDS011;3625;51.762;14.320;2023-02-01T01:29:36;8.97;;;3.10;;
7166;SDS011;3625;51.762;14.320;2023-02-01T01:32:07;8.07;;;3.10;;
7166;SDS011;3625;51.762;14.320;2023-02-01T01:34:36;29.37;;;4.50;;
7166;SDS011;3625;51.762;14.320;2023-02-01T01:37:15;12.93;;;3.93;;
7166;SDS011;3625;51.762;14.320;2023-02-01T01:39:52;7.63;;;3.40;;
7166;SDS011;3625;51.762;14.320;2023-02-01T01:42:32;9.73;;;3.90;;
7166;SDS011;3625;51.762;14.320;2023-02-01T01:45:11;11.80;;;3.30;;
7166;SDS011;3625;51.762;14.320;2023-02-01T01:47:48;7.57;;;3.70;;
7166;SDS011;3625;51.762;14.320;2023-02-01T01:50:23;13.77;;;3.73;;
7166;SDS011;3625;51.762;14.320;2023-02-01T01:52:56;11.47;;;3.13;;
7166;SDS011;3625;51.762;14.320;2023-02-01T01:55:29;9.13;;;3.47;;
7166;SDS011;3625;51.762;14.320;2023-02-01T01:58:05;9.97;;;3.47;;
7166;SDS011;3625;51.762;14.320;2023-02-01T02:00:38;9.27;;;4.10;;
7166;SDS011;3625;51.762;14.320;2023-02-01T02:03:09;11.07;;;3.83;;
7166;SDS011;3625;51.762;14.320;2023-02-01T02:05:42;10.70;;;3.73;;
7166;SDS011;3625;51.762;14.320;2023-02-01T02:08:14;5.90;;;2.67;;
7166;SDS011;3625;51.762;14.320;2023-02-01T02:10:50;7.13;;;2.93;;
7166;SDS011;3625;51.762;14.320;2023-02-01T02:13:32;10.87;;;3.17;;
7166;SDS011;3625;51.762;14.320;2023-02-01T02:22:09;10.33;;;3.50;;
7166;SDS011;3625;51.762;14.320;2023-02-01T02:28:12;8.43;;;3.47;;
7166;SDS011;3625;51.762;14.320;2023-02-01T02:31:09;10.97;;;3.80;;
7166;SDS011;3625;51.762;14.320;2023-02-01T02:33:54;9.30;;;3.30;;
7166;SDS011;3625;51.762;14.320;2023-02-01T02:36:36;6.47;;;3.13;;
7166;SDS011;3625;51.762;14.320;2023-02-01T02:39:19;9.97;;;3.80;;
7166;SDS011;3625;51.762;14.320;2023-02-01T02:41:59;7.87;;;3.43;;
7166;SDS011;3625;51.762;14.320;2023-02-01T02:44:57;8.33;;;2.90;;
7166;SDS011;3625;51.762;14.320;2023-02-01T02:47:51;8.53;;;3.43;;
7166;SDS011;3625;51.762;14.320;2023-02-01T02:50:34;6.87;;;2.80;;
7166;SDS011;3625;51.762;14.320;2023-02-01T02:53:28;10.33;;;4.50;;
7166;SDS011;3625;51.762;14.320;2023-02-01T02:56:21;5.33;;;3.17;;
7166;SDS011;3625;51.762;14.320;2023-02-01T02:59:12;8.13;;;3.70;;
7166;SDS011;3625;51.762;14.320;2023-02-01T03:02:02;16.87;;;3.83;;
7166;SDS011;3625;51.762;14.320;2023-02-01T03:04:51;10.10;;;4.17;;
7166;SDS011;3625;51.762;14.320;2023-02-01T03:10:27;9.93;;;3.10;;
7166;SDS011;3625;51.762;14.320;2023-02-01T03:13:04;6.00;;;2.93;;
7166;SDS011;3625;51.762;14.320;2023-02-01T03:15:38;11.33;;;2.90;;
7166;SDS011;3625;51.762;14.320;2023-02-01T03:18:11;7.07;;;3.27;;
7166;SDS011;3625;51.762;14.320;2023-02-01T03:20:52;7.20;;;3.00;;
7166;SDS011;3625;51.762;14.320;2023-02-01T03:23:27;8.40;;;3.70;;
7166;SDS011;3625;51.762;14.320;2023-02-01T03:26:01;9.23;;;3.37;;
7166;SDS011;3625;51.762;14.320;2023-02-01T03:28:33;11.00;;;3.70;;
7166;SDS011;3625;51.762;14.320;2023-02-01T03:31:15;7.37;;;3.83;;
7166;SDS011;3625;51.762;14.320;2023-02-01T03:33:57;6.97;;;3.00;;
7166;SDS011;3625;51.762;14.320;2023-02-01T03:36:27;10.03;;;3.83;;
7166;SDS011;3625;51.762;14.320;2023-02-01T03:39:03;11.80;;;3.50;;
7166;SDS011;3625;51.762;14.320;2023-02-01T03:41:40;11.20;;;3.70;;
7166;SDS011;3625;51.762;14.320;2023-02-01T03:44:18;6.03;;;2.87;;
7166;SDS011;3625;51.762;14.320;2023-02-01T03:46:50;8.83;;;3.17;;
7166;SDS011;3625;51.762;14.320;2023-02-01T03:49:25;10.27;;;3.77;;
7166;SDS011;3625;51.762;14.320;2023-02-01T03:51:57;8.43;;;3.10;;
7166;SDS011;3625;51.762;14.320;2023-02-01T03:54:30;9.83;;;3.43;;
7166;SDS011;3625;51.762;14.320;2023-02-01T03:57:04;6.07;;;3.17;;
7166;SDS011;3625;51.762;14.320;2023-02-01T03:59:40;10.70;;;3.30;;
7166;SDS011;3625;51.762;14.320;2023-02-01T04:02:10;7.83;;;2.83;;
7166;SDS011;3625;51.762;14.320;2023-02-01T04:04:39;9.33;;;3.47;;
7166;SDS011;3625;51.762;14.320;2023-02-01T04:07:08;8.03;;;3.33;;
7166;SDS011;3625;51.762;14.320;2023-02-01T04:09:39;10.87;;;3.20;;
7166;SDS011;3625;51.762;14.320;2023-02-01T04:12:08;9.50;;;3.57;;
7166;SDS011;3625;51.762;14.320;2023-02-01T04:14:39;10.33;;;3.73;;
7166;SDS011;3625;51.762;14.320;2023-02-01T04:17:09;11.40;;;3.63;;
7166;SDS011;3625;51.762;14.320;2023-02-01T04:19:41;8.70;;;3.20;;
7166;SDS011;3625;51.762;14.320;2023-02-01T04:22:13;11.87;;;3.40;;
7166;SDS011;3625;51.762;14.320;2023-02-01T04:24:44;14.13;;;3.63;;
7166;SDS011;3625;51.762;14.320;2023-02-01T04:27:22;9.43;;;3.20;;
7166;SDS011;3625;51.762;14.320;2023-02-01T04:29:53;10.30;;;3.07;;
7166;SDS011;3625;51.762;14.320;2023-02-01T04:32:30;10.47;;;4.00;;
7166;SDS011;3625;51.762;14.320;2023-02-01T04:35:05;9.13;;;3.53;;
7166;SDS011;3625;51.762;14.320;2023-02-01T04:37:40;8.97;;;3.43;;
7166;SDS011;3625;51.762;14.320;2023-02-01T04:40:11;10.40;;;3.73;;
7166;SDS011;3625;51.762;14.320;2023-02-01T04:43:00;7.37;;;3.33;;
7166;SDS011;3625;51.762;14.320;2023-02-01T04:45:34;9.27;;;2.93;;
7166;SDS011;3625;51.762;14.320;2023-02-01T04:48:04;6.27;;;3.13;;
7166;SDS011;3625;51.762;14.320;2023-02-01T04:50:36;10.33;;;3.37;;
7166;SDS011;3625;51.762;14.320;2023-02-01T04:53:07;7.50;;;3.50;;
7166;SDS011;3625;51.762;14.320;2023-02-01T04:55:42;8.43;;;2.97;;
7166;SDS011;3625;51.762;14.320;2023-02-01T04:58:12;5.63;;;2.90;;
7166;SDS011;3625;51.762;14.320;2023-02-01T05:00:46;9.53;;;3.60;;
7166;SDS011;3625;51.762;14.320;2023-02-01T05:03:21;5.57;;;2.93;;
7166;SDS011;3625;51.762;14.320;2023-02-01T05:05:55;12.70;;;3.60;;
7166;SDS011;3625;51.762;14.320;2023-02-01T05:08:24;6.50;;;3.30;;
7166;SDS011;3625;51.762;14.320;2023-02-01T05:11:05;9.67;;;3.40;;
7166;SDS011;3625;51.762;14.320;2023-02-01T05:13:56;10.67;;;3.37;;
7166;SDS011;3625;51.762;14.320;2023-02-01T05:16:29;8.97;;;3.60;;
7166;SDS011;3625;51.762;14.320;2023-02-01T05:18:58;8.63;;;3.03;;
7166;SDS011;3625;51.762;14.320;2023-02-01T05:21:31;8.47;;;3.80;;
7166;SDS011;3625;51.762;14.320;2023-02-01T05:24:16;7.33;;;3.30;;
7166;SDS011;3625;51.762;14.320;2023-02-01T05:26:49;7.70;;;3.40;;
7166;SDS011;3625;51.762;14.320;2023-02-01T05:29:20;8.67;;;3.00;;
7166;SDS011;3625;51.762;14.320;2023-02-01T05:31:49;8.70;;;3.13;;
7166;SDS011;3625;51.762;14.320;2023-02-01T05:34:18;10.67;;;3.67;;
7166;SDS011;3625;51.762;14.320;2023-02-01T05:37:24;8.33;;;3.53;;
7166;SDS011;3625;51.762;14.320;2023-02-01T05:39:56;8.57;;;3.57;;
7166;SDS011;3625;51.762;14.320;2023-02-01T05:45:49;9.00;;;4.00;;
7166;SDS011;3625;51.762;14.320;2023-02-01T05:48:23;7.67;;;3.43;;
7166;SDS011;3625;51.762;14.320;2023-02-01T05:50:52;6.53;;;3.03;;
7166;SDS011;3625;51.762;14.320;2023-02-01T05:53:28;10.00;;;3.00;;
7166;SDS011;3625;51.762;14.320;2023-02-01T05:55:57;8.13;;;3.20;;
7166;SDS011;3625;51.762;14.320;2023-02-01T05:58:39;9.60;;;3.63;;
7166;SDS011;3625;51.762;14.320;2023-02-01T06:01:11;8.07;;;3.83;;
7166;SDS011;3625;51.762;14.320;2023-02-01T06:03:52;10.13;;;3.83;;
7166;SDS011;3625;51.762;14.320;2023-02-01T06:06:24;11.47;;;3.43;;
7166;SDS011;3625;51.762;14.320;2023-02-01T06:08:55;9.63;;;3.80;;
7166;SDS011;3625;51.762;14.320;2023-02-01T06:11:26;9.73;;;3.50;;
7166;SDS011;3625;51.762;14.320;2023-02-01T06:14:01;7.67;;;3.50;;
7166;SDS011;3625;51.762;14.320;2023-02-01T06:16:34;10.87;;;3.40;;
7166;SDS011;3625;51.762;14.320;2023-02-01T06:19:05;7.70;;;3.20;;
7166;SDS011;3625;51.762;14.320;2023-02-01T06:21:35;10.30;;;4.07;;
7166;SDS011;3625;51.762;14.320;2023-02-01T06:24:08;9.43;;;3.83;;
7166;SDS011;3625;51.762;14.320;2023-02-01T06:26:37;9.20;;;3.60;;
7166;SDS011;3625;51.762;14.320;2023-02-01T06:29:11;6.80;;;3.57;;
7166;SDS011;3625;51.762;14.320;2023-02-01T06:32:04;6.57;;;3.07;;
7166;SDS011;3625;51.762;14.320;2023-02-01T06:34:38;7.10;;;3.10;;
7166;SDS011;3625;51.762;14.320;2023-02-01T06:37:13;4.17;;;3.17;;
7166;SDS011;3625;51.762;14.320;2023-02-01T06:39:48;8.90;;;3.30;;
7166;SDS011;3625;51.762;14.320;2023-02-01T06:42:26;12.13;;;3.60;;
7166;SDS011;3625;51.762;14.320;2023-02-01T06:44:59;6.73;;;3.57;;
7166;SDS011;3625;51.762;14.320;2023-02-01T06:47:30;6.23;;;3.20;;
7166;SDS011;3625;51.762;14.320;2023-02-01T06:49:59;9.93;;;3.97;;
7166;SDS011;3625;51.762;14.320;2023-02-01T06:52:31;9.17;;;4.10;;
7166;SDS011;3625;51.762;14.320;2023-02-01T06:55:00;13.70;;;4.17;;
7166;SDS011;3625;51.762;14.320;2023-02-01T06:57:32;10.23;;;3.57;;
7166;SDS011;3625;51.762;14.320;2023-02-01T07:00:05;9.30;;;3.70;;
7166;SDS011;3625;51.762;14.320;2023-02-01T07:02:42;9.93;;;3.97;;
7166;SDS011;3625;51.762;14.320;2023-02-01T07:05:18;9.50;;;3.90;;
7166;SDS011;3625;51.762;14.320;2023-02-01T07:07:52;11.60;;;4.13;;
7166;SDS011;3625;51.762;14.320;2023-02-01T07:10:21;11.07;;;3.70;;
7166;SDS011;3625;51.762;14.320;2023-02-01T07:12:56;8.00;;;3.93;;
7166;SDS011;3625;51.762;14.320;2023-02-01T07:15:31;7.23;;;3.60;;
7166;SDS011;3625;51.762;14.320;2023-02-01T07:18:07;8.77;;;3.87;;
7166;SDS011;3625;51.762;14.320;2023-02-01T07:20:42;13.20;;;4.10;;
7166;SDS011;3625;51.762;14.320;2023-02-01T07:23:18;9.17;;;3.97;;
7166;SDS011;3625;51.762;14.320;2023-02-01T07:25:47;7.27;;;3.47;;
7166;SDS011;3625;51.762;14.320;2023-02-01T07:28:20;14.07;;;3.93;;
7166;SDS011;3625;51.762;14.320;2023-02-01T07:31:01;6.93;;;2.90;;
7166;SDS011;3625;51.762;14.320;2023-02-01T07:33:42;14.13;;;4.67;;
7166;SDS011;3625;51.762;14.320;2023-02-01T07:36:19;5.47;;;3.23;;
7166;SDS011;3625;51.762;14.320;2023-02-01T07:38:48;6.83;;;3.43;;
7166;SDS011;3625;51.762;14.320;2023-02-01T07:41:24;8.50;;;4.17;;
7166;SDS011;3625;51.762;14.320;2023-02-01T07:43:53;11.53;;;4.63;;
7166;SDS011;3625;51.762;14.320;2023-02-01T07:46:23;8.83;;;3.50;;
7166;SDS011;3625;51.762;14.320;2023-02-01T07:48:56;7.57;;;3.80;;
7166;SDS011;3625;51.762;14.320;2023-02-01T07:51:25;8.23;;;3.40;;
7166;SDS011;3625;51.762;14.320;2023-02-01T07:53:59;7.97;;;3.67;;
7166;SDS011;3625;51.762;14.320;2023-02-01T07:56:31;11.63;;;4.27;;
7166;SDS011;3625;51.762;14.320;2023-02-01T07:59:09;8.30;;;3.97;;
7166;SDS011;3625;51.762;14.320;2023-02-01T08:01:40;12.53;;;3.57;;
7166;SDS011;3625;51.762;14.320;2023-02-01T08:04:19;8.87;;;3.80;;
7166;SDS011;3625;51.762;14.320;2023-02-01T08:06:52;6.80;;;3.97;;
7166;SDS011;3625;51.762;14.320;2023-02-01T08:09:41;13.27;;;3.90;;
7166;SDS011;3625;51.762;14.320;2023-02-01T08:12:18;9.17;;;3.93;;
7166;SDS011;3625;51.762;14.320;2023-02-01T08:14:51;10.90;;;3.57;;
7166;SDS011;3625;51.762;14.320;2023-02-01T08:17:34;12.47;;;3.43;;
7166;SDS011;3625;51.762;14.320;2023-02-01T08:20:19;12.40;;;4.00;;
7166;SDS011;3625;51.762;14.320;2023-02-01T08:22:58;9.20;;;4.33;;
7166;SDS011;3625;51.762;14.320;2023-02-01T08:25:30;11.00;;;3.83;;
7166;SDS011;3625;51.762;14.320;2023-02-01T08:28:01;11.40;;;3.57;;
7166;SDS011;3625;51.762;14.320;2023-02-01T08:30:30;9.63;;;3.43;;
7166;SDS011;3625;51.762;14.320;2023-02-01T08:33:17;14.97;;;4.40;;
7166;SDS011;3625;51.762;14.320;2023-02-01T08:35:48;11.27;;;4.07;;
7166;SDS011;3625;51.762;14.320;2023-02-01T08:38:26;10.07;;;4.33;;
7166;SDS011;3625;51.762;14.320;2023-02-01T08:41:04;9.23;;;3.87;;
7166;SDS011;3625;51.762;14.320;2023-02-01T08:43:42;12.03;;;4.17;;
7166;SDS011;3625;51.762;14.320;2023-02-01T08:46:13;7.23;;;3.97;;
7166;SDS011;3625;51.762;14.320;2023-02-01T08:48:49;11.67;;;4.53;;
7166;SDS011;3625;51.762;14.320;2023-02-01T08:51:27;8.03;;;3.57;;
7166;SDS011;3625;51.762;14.320;2023-02-01T08:54:01;11.47;;;4.43;;
7166;SDS011;3625;51.762;14.320;2023-02-01T08:56:30;8.27;;;4.07;;
7166;SDS011;3625;51.762;14.320;2023-02-01T08:59:08;14.53;;;4.60;;
7166;SDS011;3625;51.762;14.320;2023-02-01T09:01:44;11.23;;;4.37;;
7166;SDS011;3625;51.762;14.320;2023-02-01T09:04:15;7.97;;;3.67;;
7166;SDS011;3625;51.762;14.320;2023-02-01T09:06:54;9.57;;;4.17;;
7166;SDS011;3625;51.762;14.320;2023-02-01T09:09:27;11.27;;;3.80;;
7166;SDS011;3625;51.762;14.320;2023-02-01T09:12:09;7.93;;;3.60;;
7166;SDS011;3625;51.762;14.320;2023-02-01T09:17:35;8.70;;;3.37;;
7166;SDS011;3625;51.762;14.320;2023-02-01T09:20:13;7.47;;;4.00;;
7166;SDS011;3625;51.762;14.320;2023-02-01T09:22:50;6.93;;;4.00;;
7166;SDS011;3625;51.762;14.320;2023-02-01T09:25:31;8.40;;;4.27;;
7166;SDS011;3625;51.762;14.320;2023-02-01T09:28:02;9.57;;;4.20;;
7166;SDS011;3625;51.762;14.320;2023-02-01T09:30:32;7.13;;;3.70;;
7166;SDS011;3625;51.762;14.320;2023-02-01T09:33:22;10.30;;;3.90;;
7166;SDS011;3625;51.762;14.320;2023-02-01T09:36:00;6.67;;;3.57;;
7166;SDS011;3625;51.762;14.320;2023-02-01T09:38:31;7.80;;;3.80;;
7166;SDS011;3625;51.762;14.320;2023-02-01T09:41:25;8.63;;;3.97;;
7166;SDS011;3625;51.762;14.320;2023-02-01T09:44:08;11.20;;;4.50;;
7166;SDS011;3625;51.762;14.320;2023-02-01T09:46:55;8.60;;;3.90;;
7166;SDS011;3625;51.762;14.320;2023-02-01T09:49:33;8.43;;;4.03;;
7166;SDS011;3625;51.762;14.320;2023-02-01T09:52:18;8.83;;;4.20;;
7166;SDS011;3625;51.762;14.320;2023-02-01T09:55:01;7.90;;;4.07;;
7166;SDS011;3625;51.762;14.320;2023-02-01T09:57:43;9.87;;;3.80;;
7166;SDS011;3625;51.762;14.320;2023-02-01T10:00:25;7.10;;;3.40;;
7166;SDS011;3625;51.762;14.320;2023-02-01T10:02:57;7.17;;;3.17;;
7166;SDS011;3625;51.762;14.320;2023-02-01T10:05:42;5.37;;;3.60;;
7166;SDS011;3625;51.762;14.320;2023-02-01T10:08:45;6.77;;;3.70;;
7166;SDS011;3625;51.762;14.320;2023-02-01T10:11:35;6.80;;;3.53;;
7166;SDS011;3625;51.762;14.320;2023-02-01T10:14:23;6.30;;;3.20;;
7166;SDS011;3625;51.762;14.320;2023-02-01T10:17:44;5.60;;;3.27;;
7166;SDS011;3625;51.762;14.320;2023-02-01T10:20:29;5.07;;;3.13;;
7166;SDS011;3625;51.762;14.320;2023-02-01T10:23:11;4.63;;;2.70;;
7166;SDS011;3625;51.762;14.320;2023-02-01T10:26:04;4.50;;;3.30;;
7166;SDS011;3625;51.762;14.320;2023-02-01T10:28:46;4.87;;;2.80;;
7166;SDS011;3625;51.762;14.320;2023-02-01T10:31:20;5.93;;;3.43;;
7166;SDS011;3625;51.762;14.320;2023-02-01T10:33:52;6.83;;;3.37;;
7166;SDS011;3625;51.762;14.320;2023-02-01T10:36:31;5.13;;;3.40;;
7166;SDS011;3625;51.762;14.320;2023-02-01T10:39:03;4.33;;;3.23;;
7166;SDS011;3625;51.762;14.320;2023-02-01T10:41:36;3.63;;;2.70;;
7166;SDS011;3625;51.762;14.320;2023-02-01T10:44:07;4.70;;;3.17;;
7166;SDS011;3625;51.762;14.320;2023-02-01T10:46:43;4.60;;;2.80;;
7166;SDS011;3625;51.762;14.320;2023-02-01T10:49:13;3.10;;;2.80;;
7166;SDS011;3625;51.762;14.320;2023-02-01T10:51:47;5.10;;;3.10;;
7166;SDS011;3625;51.762;14.320;2023-02-01T10:54:23;5.27;;;2.90;;
7166;SDS011;3625;51.762;14.320;2023-02-01T10:57:02;4.60;;;2.63;;
7166;SDS011;3625;51.762;14.320;2023-02-01T10:59:34;2.83;;;2.33;;
7166;SDS011;3625;51.762;14.320;2023-02-01T11:02:12;4.10;;;2.40;;
7166;SDS011;3625;51.762;14.320;2023-02-01T11:04:48;4.10;;;2.27;;
7166;SDS011;3625;51.762;14.320;2023-02-01T11:07:19;4.30;;;2.27;;
7166;SDS011;3625;51.762;14.320;2023-02-01T11:09:52;4.77;;;2.50;;
7166;SDS011;3625;51.762;14.320;2023-02-01T11:12:27;3.40;;;2.37;;
7166;SDS011;3625;51.762;14.320;2023-02-01T11:15:01;4.77;;;2.80;;
7166;SDS011;3625;51.762;14.320;2023-02-01T11:17:42;2.80;;;2.50;;
7166;SDS011;3625;51.762;14.320;2023-02-01T11:20:14;5.80;;;2.80;;
7166;SDS011;3625;51.762;14.320;2023-02-01T11:22:47;3.80;;;2.70;;
7166;SDS011;3625;51.762;14.320;2023-02-01T11:25:22;3.60;;;2.60;;
7166;SDS011;3625;51.762;14.320;2023-02-01T11:27:54;2.93;;;2.50;;
7166;SDS011;3625;51.762;14.320;2023-02-01T11:30:30;4.83;;;2.60;;
7166;SDS011;3625;51.762;14.320;2023-02-01T11:33:05;2.63;;;2.33;;
7166;SDS011;3625;51.762;14.320;2023-02-01T11:35:37;4.07;;;2.60;;
7166;SDS011;3625;51.762;14.320;2023-02-01T11:38:11;2.97;;;2.47;;
7166;SDS011;3625;51.762;14.320;2023-02-01T11:40:47;3.43;;;2.40;;
7166;SDS011;3625;51.762;14.320;2023-02-01T11:43:20;2.80;;;2.10;;
7166;SDS011;3625;51.762;14.320;2023-02-01T11:45:56;4.03;;;2.10;;
7166;SDS011;3625;51.762;14.320;2023-02-01T11:48:29;2.60;;;2.40;;
7166;SDS011;3625;51.762;14.320;2023-02-01T11:51:04;4.80;;;2.30;;
7166;SDS011;3625;51.762;14.320;2023-02-01T11:54:05;3.87;;;2.43;;
7166;SDS011;3625;51.762;14.320;2023-02-01T11:57:02;4.93;;;2.50;;
7166;SDS011;3625;51.762;14.320;2023-02-01T12:03:04;5.00;;;2.57;;
7166;SDS011;3625;51.762;14.320;2023-02-01T12:06:41;4.83;;;2.47;;
7166;SDS011;3625;51.762;14.320;2023-02-01T12:09:40;4.17;;;2.47;;
7166;SDS011;3625;51.762;14.320;2023-02-01T12:12:31;4.10;;;2.03;;
7166;SDS011;3625;51.762;14.320;2023-02-01T12:15:24;3.37;;;2.20;;
7166;SDS011;3625;51.762;14.320;2023-02-01T12:21:34;4.17;;;2.13;;
7166;SDS011;3625;51.762;14.320;2023-02-01T12:27:34;3.83;;;2.30;;
7166;SDS011;3625;51.762;14.320;2023-02-01T12:30:34;3.70;;;2.27;;
7166;SDS011;3625;51.762;14.320;2023-02-01T12:33:39;5.43;;;2.50;;
7166;SDS011;3625;51.762;14.320;2023-02-01T12:36:22;4.10;;;2.13;;
7166;SDS011;3625;51.762;14.320;2023-02-01T12:39:23;5.23;;;2.30;;
7166;SDS011;3625;51.762;14.320;2023-02-01T12:42:01;5.33;;;2.63;;
7166;SDS011;3625;51.762;14.320;2023-02-01T12:44:42;5.07;;;2.47;;
7166;SDS011;3625;51.762;14.320;2023-02-01T12:47:22;3.90;;;2.53;;
7166;SDS011;3625;51.762;14.320;2023-02-01T12:50:02;4.30;;;3.17;;
7166;SDS011;3625;51.762;14.320;2023-02-01T12:53:06;3.53;;;2.50;;
7166;SDS011;3625;51.762;14.320;2023-02-01T12:55:56;5.07;;;2.57;;
7166;SDS011;3625;51.762;14.320;2023-02-01T12:58:32;4.67;;;2.30;;
7166;SDS011;3625;51.762;14.320;2023-02-01T13:01:44;4.90;;;2.50;;
7166;SDS011;3625;51.762;14.320;2023-02-01T13:04:49;3.23;;;2.50;;
7166;SDS011;3625;51.762;14.320;2023-02-01T13:08:27;2.00;;;1.80;;
7166;SDS011;3625;51.762;14.320;2023-02-01T13:12:05;2.10;;;1.90;;
7166;SDS011;3625;51.762;14.320;2023-02-01T13:15:36;3.27;;;2.20;;
7166;SDS011;3625;51.762;14.320;2023-02-01T13:18:49;4.90;;;2.43;;
7166;SDS011;3625;51.762;14.320;2023-02-01T13:28:47;3.37;;;2.00;;
7166;SDS011;3625;51.762;14.320;2023-02-01T13:35:39;3.70;;;2.33;;
7166;SDS011;3625;51.762;14.320;2023-02-01T13:38:38;4.40;;;2.30;;
7166;SDS011;3625;51.762;14.320;2023-02-01T13:41:53;4.70;;;2.43;;
7166;SDS011;3625;51.762;14.320;2023-02-01T13:44:26;4.97;;;2.70;;
7166;SDS011;3625;51.762;14.320;2023-02-01T13:47:17;5.17;;;2.43;;
7166;SDS011;3625;51.762;14.320;2023-02-01T13:50:21;7.07;;;2.83;;
7166;SDS011;3625;51.762;14.320;2023-02-01T13:53:13;2.63;;;2.37;;
7166;SDS011;3625;51.762;14.320;2023-02-01T13:55:55;5.00;;;2.53;;
7166;SDS011;3625;51.762;14.320;2023-02-01T13:58:34;2.93;;;2.10;;
7166;SDS011;3625;51.762;14.320;2023-02-01T14:04:01;4.33;;;2.53;;
7166;SDS011;3625;51.762;14.320;2023-02-01T14:06:42;3.73;;;2.40;;
7166;SDS011;3625;51.762;14.320;2023-02-01T14:09:13;3.40;;;2.43;;
7166;SDS011;3625;51.762;14.320;2023-02-01T14:11:46;6.07;;;2.67;;
7166;SDS011;3625;51.762;14.320;2023-02-01T14:23:16;5.83;;;2.67;;
7166;SDS011;3625;51.762;14.320;2023-02-01T14:25:56;7.53;;;2.83;;
7166;SDS011;3625;51.762;14.320;2023-02-01T14:28:38;3.70;;;2.43;;
7166;SDS011;3625;51.762;14.320;2023-02-01T14:31:33;4.50;;;2.63;;
7166;SDS011;3625;51.762;14.320;2023-02-01T14:34:12;6.23;;;3.17;;
7166;SDS011;3625;51.762;14.320;2023-02-01T14:36:50;3.03;;;2.23;;
7166;SDS011;3625;51.762;14.320;2023-02-01T14:39:28;7.73;;;3.17;;
7166;SDS011;3625;51.762;14.320;2023-02-01T14:42:05;4.97;;;2.60;;
7166;SDS011;3625;51.762;14.320;2023-02-01T14:44:50;8.00;;;3.00;;
7166;SDS011;3625;51.762;14.320;2023-02-01T14:47:28;9.90;;;3.10;;
7166;SDS011;3625;51.762;14.320;2023-02-01T14:53:17;5.57;;;2.70;;
7166;SDS011;3625;51.762;14.320;2023-02-01T14:55:50;6.33;;;2.80;;
7166;SDS011;3625;51.762;14.320;2023-02-01T14:58:32;7.53;;;3.67;;
7166;SDS011;3625;51.762;14.320;2023-02-01T15:01:15;6.57;;;2.70;;
7166;SDS011;3625;51.762;14.320;2023-02-01T15:03:53;6.47;;;3.23;;
7166;SDS011;3625;51.762;14.320;2023-02-01T15:06:30;6.00;;;3.40;;
7166;SDS011;3625;51.762;14.320;2023-02-01T15:09:04;9.30;;;3.73;;
7166;SDS011;3625;51.762;14.320;2023-02-01T15:11:56;7.93;;;3.17;;
7166;SDS011;3625;51.762;14.320;2023-02-01T15:14:27;6.97;;;3.83;;
7166;SDS011;3625;51.762;14.320;2023-02-01T15:16:58;6.00;;;2.87;;
7166;SDS011;3625;51.762;14.320;2023-02-01T15:19:33;5.50;;;2.83;;
7166;SDS011;3625;51.762;14.320;2023-02-01T15:22:03;6.73;;;3.30;;
7166;SDS011;3625;51.762;14.320;2023-02-01T15:24:32;4.97;;;2.93;;
7166;SDS011;3625;51.762;14.320;2023-02-01T15:27:04;8.47;;;3.40;;
7166;SDS011;3625;51.762;14.320;2023-02-01T15:29:34;6.90;;;3.67;;
7166;SDS011;3625;51.762;14.320;2023-02-01T15:32:03;8.43;;;3.27;;
7166;SDS011;3625;51.762;14.320;2023-02-01T15:34:47;7.63;;;3.40;;
7166;SDS011;3625;51.762;14.320;2023-02-01T15:37:20;4.47;;;3.07;;
7166;SDS011;3625;51.762;14.320;2023-02-01T15:40:18;6.43;;;3.30;;
7166;SDS011;3625;51.762;14.320;2023-02-01T15:43:11;7.03;;;3.10;;
7166;SDS011;3625;51.762;14.320;2023-02-01T15:45:51;4.90;;;2.70;;
7166;SDS011;3625;51.762;14.320;2023-02-01T15:48:24;7.23;;;3.10;;
7166;SDS011;3625;51.762;14.320;2023-02-01T15:51:03;6.00;;;2.87;;
7166;SDS011;3625;51.762;14.320;2023-02-01T15:53:37;6.00;;;2.93;;
7166;SDS011;3625;51.762;14.320;2023-02-01T15:56:16;8.00;;;3.37;;
7166;SDS011;3625;51.762;14.320;2023-02-01T15:58:52;8.43;;;3.50;;
7166;SDS011;3625;51.762;14.320;2023-02-01T16:01:30;7.90;;;3.10;;
7166;SDS011;3625;51.762;14.320;2023-02-01T16:04:13;6.87;;;3.57;;
7166;SDS011;3625;51.762;14.320;2023-02-01T16:06:56;6.90;;;3.33;;
7166;SDS011;3625;51.762;14.320;2023-02-01T16:09:36;12.00;;;3.90;;
7166;SDS011;3625;51.762;14.320;2023-02-01T16:12:29;6.37;;;3.83;;
7166;SDS011;3625;51.762;14.320;2023-02-01T16:15:06;8.07;;;3.30;;
7166;SDS011;3625;51.762;14.320;2023-02-01T16:17:40;7.60;;;4.10;;
7166;SDS011;3625;51.762;14.320;2023-02-01T16:20:11;4.40;;;3.90;;
7166;SDS011;3625;51.762;14.320;2023-02-01T16:22:54;6.83;;;3.77;;
7166;SDS011;3625;51.762;14.320;2023-02-01T16:25:37;8.80;;;3.73;;
7166;SDS011;3625;51.762;14.320;2023-02-01T16:28:15;8.47;;;3.97;;
7166;SDS011;3625;51.762;14.320;2023-02-01T16:30:56;7.73;;;4.43;;
7166;SDS011;3625;51.762;14.320;2023-02-01T16:33:35;8.47;;;4.13;;
7166;SDS011;3625;51.762;14.320;2023-02-01T16:36:48;11.23;;;4.77;;
7166;SDS011;3625;51.762;14.320;2023-02-01T16:39:32;8.87;;;4.00;;
7166;SDS011;3625;51.762;14.320;2023-02-01T16:42:23;9.33;;;4.50;;
7166;SDS011;3625;51.762;14.320;2023-02-01T16:44:53;8.20;;;4.67;;
7166;SDS011;3625;51.762;14.320;2023-02-01T16:47:29;10.83;;;4.53;;
7166;SDS011;3625;51.762;14.320;2023-02-01T16:50:29;6.47;;;4.00;;
7166;SDS011;3625;51.762;14.320;2023-02-01T16:53:08;4.80;;;3.47;;
7166;SDS011;3625;51.762;14.320;2023-02-01T16:55:51;12.23;;;4.53;;
7166;SDS011;3625;51.762;14.320;2023-02-01T16:58:47;6.27;;;4.10;;
7166;SDS011;3625;51.762;14.320;2023-02-01T17:01:31;7.97;;;4.87;;